sensor_id;sensor_type;location;lat;lon;timestamp;pressure;altitude;pressure_sealevel;temperature;humidity
63715;BME280;49858;48.956;9.076;2023-03-11T00:01:44;97660.56;;;2.83;100.00
63715;BME280;49858;48.956;9.076;2023-03-11T00:04:12;97664.91;;;2.75;100.00
63715;BME280;49858;48.956;9.076;2023-03-11T00:06:41;97662.75;;;2.68;100.00
63715;BME280;49858;48.956;9.076;2023-03-11T00:09:09;97685.09;;;2.65;100.00
63715;BME280;49858;48.956;9.076;2023-03-11T00:11:36;97670.19;;;2.71;100.00
63715;BME280;49858;48.956;9.076;2023-03-11T00:14:04;97673.88;;;2.46;100.00
63715;BME280;49858;48.956;9.076;2023-03-11T00:16:32;97681.28;;;2.37;100.00
63715;BME280;49858;48.956;9.076;2023-03-11T00:19:00;97681.91;;;2.34;100.00
63715;BME280;49858;48.956;9.076;2023-03-11T00:21:27;97706.91;;;2.18;100.00
63715;BME280;49858;48.956;9.076;2023-03-11T00:23:56;97680.44;;;2.45;100.00
63715;BME280;49858;48.956;9.076;2023-03-11T00:26:26;97689.81;;;2.18;100.00
63715;BME280;49858;48.956;9.076;2023-03-11T00:28:54;97683.25;;;2.27;100.00
63715;BME280;49858;48.956;9.076;2023-03-11T00:31:22;97692.97;;;2.28;100.00
63715;BME280;49858;48.956;9.076;2023-03-11T00:33:52;97682.88;;;2.38;100.00
63715;BME280;49858;48.956;9.076;2023-03-11T00:36:23;97697.75;;;2.32;100.00
63715;BME280;49858;48.956;9.076;2023-03-11T00:38:51;97684.81;;;2.28;100.00
63715;BME280;49858;48.956;9.076;2023-03-11T00:41:20;97699.38;;;2.24;100.00
63715;BME280;49858;48.956;9.076;2023-03-11T00:43:48;97699.31;;;2.03;100.00
63715;BME280;49858;48.956;9.076;2023-03-11T00:46:16;97706.16;;;2.39;100.00
63715;BME280;49858;48.956;9.076;2023-03-11T00:48:44;97703.19;;;2.32;100.00
63715;BME280;49858;48.956;9.076;2023-03-11T00:51:13;97715.81;;;2.19;100.00
63715;BME280;49858;48.956;9.076;2023-03-11T00:53:42;97728.41;;;2.23;100.00
63715;BME280;49858;48.956;9.076;2023-03-11T00:56:11;97740.09;;;2.15;100.00
63715;BME280;49858;48.956;9.076;2023-03-11T00:58:42;97735.63;;;2.19;100.00
63715;BME280;49858;48.956;9.076;2023-03-11T01:01:13;97740.97;;;2.37;100.00
63715;BME280;49858;48.956;9.076;2023-03-11T01:03:41;97743.78;;;2.49;100.00
63715;BME280;49858;48.956;9.076;2023-03-11T01:06:10;97737.69;;;2.61;100.00
63715;BME280;49858;48.956;9.076;2023-03-11T01:08:38;97731.41;;;2.30;100.00
63715;BME280;49858;48.956;9.076;2023-03-11T01:11:06;97734.72;;;2.45;100.00
63715;BME280;49858;48.956;9.076;2023-03-11T01:13:35;97737.44;;;2.74;100.00
63715;BME280;49858;48.956;9.076;2023-03-11T01:16:04;97736.34;;;3.17;100.00
63715;BME280;49858;48.956;9.076;2023-03-11T01:18:34;97740.31;;;3.20;100.00
63715;BME280;49858;48.956;9.076;2023-03-11T01:21:01;97737.94;;;2.97;100.00
63715;BME280;49858;48.956;9.076;2023-03-11T01:23:31;97745.09;;;3.23;100.00
63715;BME280;49858;48.956;9.076;2023-03-11T01:25:59;97739.00;;;3.05;100.00
63715;BME280;49858;48.956;9.076;2023-03-11T01:28:27;97741.56;;;2.80;100.00
63715;BME280;49858;48.956;9.076;2023-03-11T01:30:57;97729.00;;;2.97;100.00
63715;BME280;49858;48.956;9.076;2023-03-11T01:33:26;97726.53;;;3.46;100.00
63715;BME280;49858;48.956;9.076;2023-03-11T01:35:54;97748.28;;;3.04;100.00
63715;BME280;49858;48.956;9.076;2023-03-11T01:38:26;97748.19;;;2.62;100.00
63715;BME280;49858;48.956;9.076;2023-03-11T01:40:53;97752.78;;;2.70;100.00
63715;BME280;49858;48.956;9.076;2023-03-11T01:43:48;97758.97;;;2.79;100.00
63715;BME280;49858;48.956;9.076;2023-03-11T01:46:20;97747.34;;;3.00;100.00
63715;BME280;49858;48.956;9.076;2023-03-11T01:48:51;97754.25;;;2.97;100.00
63715;BME280;49858;48.956;9.076;2023-03-11T01:51:24;97764.03;;;2.90;100.00
63715;BME280;49858;48.956;9.076;2023-03-11T01:53:55;97745.75;;;3.20;100.00
63715;BME280;49858;48.956;9.076;2023-03-11T01:56:24;97756.66;;;2.90;100.00
63715;BME280;49858;48.956;9.076;2023-03-11T01:58:52;97749.56;;;3.06;100.00
63715;BME280;49858;48.956;9.076;2023-03-11T02:01:21;97764.66;;;2.87;100.00
63715;BME280;49858;48.956;9.076;2023-03-11T02:03:52;97736.97;;;2.43;100.00
63715;BME280;49858;48.956;9.076;2023-03-11T02:06:22;97745.66;;;2.57;100.00
63715;BME280;49858;48.956;9.076;2023-03-11T02:08:50;97747.94;;;2.55;100.00
63715;BME280;49858;48.956;9.076;2023-03-11T02:11:21;97764.19;;;2.64;100.00
63715;BME280;49858;48.956;9.076;2023-03-11T02:13:51;97770.56;;;2.21;100.00
63715;BME280;49858;48.956;9.076;2023-03-11T02:16:23;97785.78;;;1.96;100.00
63715;BME280;49858;48.956;9.076;2023-03-11T02:18:53;97783.41;;;1.68;100.00
63715;BME280;49858;48.956;9.076;2023-03-11T02:21:23;97790.75;;;1.68;100.00
63715;BME280;49858;48.956;9.076;2023-03-11T02:23:58;97804.63;;;1.84;100.00
63715;BME280;49858;48.956;9.076;2023-03-11T02:26:32;97783.59;;;1.81;100.00
63715;BME280;49858;48.956;9.076;2023-03-11T02:29:05;97776.88;;;1.78;100.00
63715;BME280;49858;48.956;9.076;2023-03-11T02:31:36;97796.28;;;2.06;100.00
63715;BME280;49858;48.956;9.076;2023-03-11T02:34:15;97782.28;;;1.87;100.00
63715;BME280;49858;48.956;9.076;2023-03-11T02:36:45;97775.28;;;1.86;100.00
63715;BME280;49858;48.956;9.076;2023-03-11T02:39:14;97769.25;;;1.71;100.00
63715;BME280;49858;48.956;9.076;2023-03-11T02:41:44;97770.19;;;1.41;100.00
63715;BME280;49858;48.956;9.076;2023-03-11T02:44:15;97763.84;;;1.37;100.00
63715;BME280;49858;48.956;9.076;2023-03-11T02:46:43;97762.56;;;1.34;100.00
63715;BME280;49858;48.956;9.076;2023-03-11T02:49:13;97769.22;;;1.02;100.00
63715;BME280;49858;48.956;9.076;2023-03-11T02:51:41;97771.00;;;1.33;100.00
63715;BME280;49858;48.956;9.076;2023-03-11T02:54:09;97777.38;;;1.19;100.00
63715;BME280;49858;48.956;9.076;2023-03-11T02:56:37;97790.75;;;1.24;100.00
63715;BME280;49858;48.956;9.076;2023-03-11T02:59:05;97794.22;;;1.08;100.00
63715;BME280;49858;48.956;9.076;2023-03-11T03:01:34;97800.44;;;0.91;100.00
63715;BME280;49858;48.956;9.076;2023-03-11T03:04:02;97799.16;;;0.97;100.00
63715;BME280;49858;48.956;9.076;2023-03-11T03:06:32;97798.22;;;1.01;100.00
63715;BME280;49858;48.956;9.076;2023-03-11T03:08:59;97797.88;;;0.86;100.00
63715;BME280;49858;48.956;9.076;2023-03-11T03:11:28;97800.44;;;0.99;100.00
63715;BME280;49858;48.956;9.076;2023-03-11T03:13:55;97809.31;;;0.83;100.00
63715;BME280;49858;48.956;9.076;2023-03-11T03:16:23;97815.97;;;0.68;100.00
63715;BME280;49858;48.956;9.076;2023-03-11T03:18:53;97828.06;;;0.70;100.00
63715;BME280;49858;48.956;9.076;2023-03-11T03:21:21;97823.06;;;0.55;100.00
63715;BME280;49858;48.956;9.076;2023-03-11T03:23:49;97821.50;;;0.63;100.00
63715;BME280;49858;48.956;9.076;2023-03-11T03:26:17;97822.63;;;0.70;100.00
63715;BME280;49858;48.956;9.076;2023-03-11T03:28:47;97814.97;;;0.64;100.00
63715;BME280;49858;48.956;9.076;2023-03-11T03:31:16;97814.94;;;0.55;100.00
63715;BME280;49858;48.956;9.076;2023-03-11T03:33:44;97817.78;;;0.50;100.00
63715;BME280;49858;48.956;9.076;2023-03-11T03:36:14;97822.78;;;0.57;100.00
63715;BME280;49858;48.956;9.076;2023-03-11T03:38:46;97815.03;;;0.72;100.00
63715;BME280;49858;48.956;9.076;2023-03-11T03:41:15;97814.13;;;0.94;100.00
63715;BME280;49858;48.956;9.076;2023-03-11T03:43:43;97814.41;;;0.75;100.00
63715;BME280;49858;48.956;9.076;2023-03-11T03:46:11;97813.44;;;0.71;100.00
63715;BME280;49858;48.956;9.076;2023-03-11T03:48:44;97830.00;;;0.79;100.00
63715;BME280;49858;48.956;9.076;2023-03-11T03:51:13;97829.00;;;0.66;100.00
63715;BME280;49858;48.956;9.076;2023-03-11T03:53:54;97835.47;;;0.47;100.00
63715;BME280;49858;48.956;9.076;2023-03-11T03:56:23;97846.72;;;0.41;100.00
63715;BME280;49858;48.956;9.076;2023-03-11T03:58:52;97849.66;;;0.53;100.00
63715;BME280;49858;48.956;9.076;2023-03-11T04:01:21;97855.34;;;0.43;100.00
63715;BME280;49858;48.956;9.076;2023-03-11T04:03:49;97861.84;;;0.42;100.00
63715;BME280;49858;48.956;9.076;2023-03-11T04:06:20;97862.22;;;0.27;100.00
63715;BME280;49858;48.956;9.076;2023-03-11T04:08:54;97864.00;;;0.31;100.00
63715;BME280;49858;48.956;9.076;2023-03-11T04:11:27;97876.25;;;0.29;100.00
63715;BME280;49858;48.956;9.076;2023-03-11T04:13:55;97865.78;;;0.36;100.00
63715;BME280;49858;48.956;9.076;2023-03-11T04:16:23;97870.22;;;0.09;100.00
63715;BME280;49858;48.956;9.076;2023-03-11T04:18:57;97860.34;;;0.05;100.00
63715;BME280;49858;48.956;9.076;2023-03-11T04:21:28;97853.78;;;0.28;100.00
63715;BME280;49858;48.956;9.076;2023-03-11T04:23:56;97854.50;;;0.11;100.00
63715;BME280;49858;48.956;9.076;2023-03-11T04:26:29;97861.31;;;0.09;100.00
63715;BME280;49858;48.956;9.076;2023-03-11T04:28:57;97872.13;;;0.31;100.00
63715;BME280;49858;48.956;9.076;2023-03-11T04:31:28;97871.47;;;0.25;100.00
63715;BME280;49858;48.956;9.076;2023-03-11T04:33:58;97869.69;;;0.21;100.00
63715;BME280;49858;48.956;9.076;2023-03-11T04:36:27;97877.72;;;0.12;100.00
63715;BME280;49858;48.956;9.076;2023-03-11T04:38:56;97873.56;;;0.29;100.00
63715;BME280;49858;48.956;9.076;2023-03-11T04:41:27;97881.66;;;0.29;100.00
63715;BME280;49858;48.956;9.076;2023-03-11T04:43:55;97869.00;;;0.15;100.00
63715;BME280;49858;48.956;9.076;2023-03-11T04:46:23;97878.59;;;0.21;100.00
63715;BME280;49858;48.956;9.076;2023-03-11T04:48:51;97880.09;;;0.36;100.00
63715;BME280;49858;48.956;9.076;2023-03-11T04:51:19;97879.06;;;0.23;100.00
63715;BME280;49858;48.956;9.076;2023-03-11T04:53:48;97871.66;;;0.29;100.00
63715;BME280;49858;48.956;9.076;2023-03-11T04:56:17;97876.88;;;0.25;100.00
63715;BME280;49858;48.956;9.076;2023-03-11T04:58:46;97873.16;;;0.44;100.00
63715;BME280;49858;48.956;9.076;2023-03-11T05:01:14;97873.28;;;0.39;100.00
63715;BME280;49858;48.956;9.076;2023-03-11T05:03:42;97876.84;;;0.48;100.00
63715;BME280;49858;48.956;9.076;2023-03-11T05:06:10;97881.91;;;0.18;100.00
63715;BME280;49858;48.956;9.076;2023-03-11T05:08:38;97887.47;;;0.44;100.00
63715;BME280;49858;48.956;9.076;2023-03-11T05:11:08;97891.06;;;0.31;100.00
63715;BME280;49858;48.956;9.076;2023-03-11T05:13:36;97886.69;;;0.21;100.00
63715;BME280;49858;48.956;9.076;2023-03-11T05:16:05;97892.59;;;0.23;100.00
63715;BME280;49858;48.956;9.076;2023-03-11T05:18:33;97901.94;;;0.17;100.00
63715;BME280;49858;48.956;9.076;2023-03-11T05:21:01;97889.47;;;0.30;100.00
63715;BME280;49858;48.956;9.076;2023-03-11T05:23:31;97909.69;;;0.10;100.00
63715;BME280;49858;48.956;9.076;2023-03-11T05:26:00;97900.22;;;0.21;100.00
63715;BME280;49858;48.956;9.076;2023-03-11T05:28:30;97898.03;;;0.01;100.00
63715;BME280;49858;48.956;9.076;2023-03-11T05:30:59;97899.97;;;0.09;100.00
63715;BME280;49858;48.956;9.076;2023-03-11T05:33:30;97909.94;;;0.00;100.00
63715;BME280;49858;48.956;9.076;2023-03-11T05:36:06;97913.50;;;-0.13;100.00
63715;BME280;49858;48.956;9.076;2023-03-11T05:38:36;97908.38;;;-0.15;100.00
63715;BME280;49858;48.956;9.076;2023-03-11T05:41:04;97903.69;;;-0.09;100.00
63715;BME280;49858;48.956;9.076;2023-03-11T05:43:35;97905.63;;;-0.01;100.00
63715;BME280;49858;48.956;9.076;2023-03-11T05:46:03;97899.38;;;0.12;100.00
63715;BME280;49858;48.956;9.076;2023-03-11T05:48:31;97904.41;;;0.05;100.00
63715;BME280;49858;48.956;9.076;2023-03-11T05:50:59;97920.81;;;0.09;100.00
63715;BME280;49858;48.956;9.076;2023-03-11T05:53:27;97917.75;;;0.02;100.00
63715;BME280;49858;48.956;9.076;2023-03-11T05:55:55;97921.00;;;0.35;100.00
63715;BME280;49858;48.956;9.076;2023-03-11T05:58:25;97919.34;;;0.25;100.00
63715;BME280;49858;48.956;9.076;2023-03-11T06:00:54;97925.16;;;0.18;100.00
63715;BME280;49858;48.956;9.076;2023-03-11T06:03:22;97930.81;;;0.08;100.00
63715;BME280;49858;48.956;9.076;2023-03-11T06:05:50;97928.63;;;0.10;100.00
63715;BME280;49858;48.956;9.076;2023-03-11T06:08:19;97935.44;;;0.08;100.00
63715;BME280;49858;48.956;9.076;2023-03-11T06:10:47;97936.97;;;0.22;100.00
63715;BME280;49858;48.956;9.076;2023-03-11T06:13:17;97932.31;;;0.37;100.00
63715;BME280;49858;48.956;9.076;2023-03-11T06:15:48;97934.03;;;0.10;100.00
63715;BME280;49858;48.956;9.076;2023-03-11T06:18:18;97935.44;;;0.08;100.00
63715;BME280;49858;48.956;9.076;2023-03-11T06:20:46;97936.91;;;0.14;100.00
63715;BME280;49858;48.956;9.076;2023-03-11T06:23:13;97935.69;;;-0.03;100.00
63715;BME280;49858;48.956;9.076;2023-03-11T06:25:41;97931.16;;;0.07;100.00
63715;BME280;49858;48.956;9.076;2023-03-11T06:28:11;97925.09;;;-0.13;100.00
63715;BME280;49858;48.956;9.076;2023-03-11T06:30:42;97920.13;;;0.03;100.00
63715;BME280;49858;48.956;9.076;2023-03-11T06:33:13;97940.72;;;0.13;100.00
63715;BME280;49858;48.956;9.076;2023-03-11T06:35:43;97942.00;;;-0.07;100.00
63715;BME280;49858;48.956;9.076;2023-03-11T06:38:11;97961.31;;;0.00;100.00
63715;BME280;49858;48.956;9.076;2023-03-11T06:40:39;97960.09;;;0.06;100.00
63715;BME280;49858;48.956;9.076;2023-03-11T06:43:07;97961.69;;;0.07;100.00
63715;BME280;49858;48.956;9.076;2023-03-11T06:45:37;97961.81;;;0.02;100.00
63715;BME280;49858;48.956;9.076;2023-03-11T06:48:07;97964.59;;;0.11;100.00
63715;BME280;49858;48.956;9.076;2023-03-11T06:50:35;97962.50;;;0.30;100.00
63715;BME280;49858;48.956;9.076;2023-03-11T06:53:05;97972.13;;;0.00;100.00
63715;BME280;49858;48.956;9.076;2023-03-11T06:55:34;97976.13;;;0.03;100.00
63715;BME280;49858;48.956;9.076;2023-03-11T06:58:02;97986.13;;;0.02;100.00
63715;BME280;49858;48.956;9.076;2023-03-11T07:00:31;97983.50;;;0.11;100.00
63715;BME280;49858;48.956;9.076;2023-03-11T07:03:01;97986.28;;;0.19;100.00
63715;BME280;49858;48.956;9.076;2023-03-11T07:05:29;97990.47;;;0.25;100.00
63715;BME280;49858;48.956;9.076;2023-03-11T07:08:02;98000.56;;;0.56;100.00
63715;BME280;49858;48.956;9.076;2023-03-11T07:10:31;97998.22;;;0.63;100.00
63715;BME280;49858;48.956;9.076;2023-03-11T07:12:59;98002.63;;;0.37;100.00
63715;BME280;49858;48.956;9.076;2023-03-11T07:15:27;98008.38;;;0.58;100.00
63715;BME280;49858;48.956;9.076;2023-03-11T07:17:54;98005.69;;;0.58;100.00
63715;BME280;49858;48.956;9.076;2023-03-11T07:20:22;98012.13;;;0.48;100.00
63715;BME280;49858;48.956;9.076;2023-03-11T07:22:50;98011.63;;;0.46;100.00
63715;BME280;49858;48.956;9.076;2023-03-11T07:25:18;98017.66;;;0.43;100.00
63715;BME280;49858;48.956;9.076;2023-03-11T07:27:47;98009.75;;;1.00;100.00
63715;BME280;49858;48.956;9.076;2023-03-11T07:30:16;98016.78;;;1.01;100.00
63715;BME280;49858;48.956;9.076;2023-03-11T07:32:44;98013.94;;;1.06;100.00
63715;BME280;49858;48.956;9.076;2023-03-11T07:35:12;98017.09;;;0.77;100.00
63715;BME280;49858;48.956;9.076;2023-03-11T07:37:40;98025.97;;;0.69;100.00
63715;BME280;49858;48.956;9.076;2023-03-11T07:40:09;98026.88;;;0.87;100.00
63715;BME280;49858;48.956;9.076;2023-03-11T07:42:37;98037.44;;;0.97;100.00
63715;BME280;49858;48.956;9.076;2023-03-11T07:45:08;98036.22;;;1.34;100.00
63715;BME280;49858;48.956;9.076;2023-03-11T07:47:36;98040.84;;;1.34;100.00
63715;BME280;49858;48.956;9.076;2023-03-11T07:50:04;98041.53;;;1.48;100.00
63715;BME280;49858;48.956;9.076;2023-03-11T07:52:32;98046.03;;;2.10;100.00
63715;BME280;49858;48.956;9.076;2023-03-11T07:55:00;98044.22;;;1.88;100.00
63715;BME280;49858;48.956;9.076;2023-03-11T07:57:28;98040.81;;;2.65;100.00
63715;BME280;49858;48.956;9.076;2023-03-11T07:59:56;98049.56;;;2.19;100.00
63715;BME280;49858;48.956;9.076;2023-03-11T08:02:25;98052.66;;;1.77;100.00
63715;BME280;49858;48.956;9.076;2023-03-11T08:04:54;98057.00;;;1.47;100.00
63715;BME280;49858;48.956;9.076;2023-03-11T08:07:23;98059.91;;;1.60;100.00
63715;BME280;49858;48.956;9.076;2023-03-11T08:09:53;98056.41;;;2.16;100.00
63715;BME280;49858;48.956;9.076;2023-03-11T08:12:21;98056.75;;;2.75;100.00
63715;BME280;49858;48.956;9.076;2023-03-11T08:14:49;98066.84;;;2.66;100.00
63715;BME280;49858;48.956;9.076;2023-03-11T08:17:17;98067.19;;;1.82;100.00
63715;BME280;49858;48.956;9.076;2023-03-11T08:19:47;98067.00;;;1.78;100.00
63715;BME280;49858;48.956;9.076;2023-03-11T08:22:15;98066.59;;;1.53;100.00
63715;BME280;49858;48.956;9.076;2023-03-11T08:24:43;98071.31;;;1.39;100.00
63715;BME280;49858;48.956;9.076;2023-03-11T08:27:11;98065.16;;;2.04;100.00
63715;BME280;49858;48.956;9.076;2023-03-11T08:29:39;98070.13;;;3.15;100.00
63715;BME280;49858;48.956;9.076;2023-03-11T08:32:07;98083.22;;;3.30;100.00
63715;BME280;49858;48.956;9.076;2023-03-11T08:34:35;98087.13;;;3.59;100.00
63715;BME280;49858;48.956;9.076;2023-03-11T08:37:06;98080.78;;;3.46;100.00
63715;BME280;49858;48.956;9.076;2023-03-11T08:39:34;98084.13;;;5.03;100.00
63715;BME280;49858;48.956;9.076;2023-03-11T08:42:02;98089.19;;;3.62;100.00
63715;BME280;49858;48.956;9.076;2023-03-11T08:44:30;98087.34;;;3.37;100.00
63715;BME280;49858;48.956;9.076;2023-03-11T08:46:59;98086.94;;;3.17;100.00
63715;BME280;49858;48.956;9.076;2023-03-11T08:49:27;98091.91;;;2.72;100.00
63715;BME280;49858;48.956;9.076;2023-03-11T08:51:55;98096.84;;;3.04;100.00
63715;BME280;49858;48.956;9.076;2023-03-11T08:54:24;98102.75;;;2.63;100.00
63715;BME280;49858;48.956;9.076;2023-03-11T08:56:52;98105.69;;;2.01;100.00
63715;BME280;49858;48.956;9.076;2023-03-11T08:59:20;98102.44;;;2.47;100.00
63715;BME280;49858;48.956;9.076;2023-03-11T09:01:47;98106.94;;;2.61;100.00
63715;BME280;49858;48.956;9.076;2023-03-11T09:04:15;98098.25;;;3.83;100.00
63715;BME280;49858;48.956;9.076;2023-03-11T09:06:43;98107.97;;;3.46;100.00
63715;BME280;49858;48.956;9.076;2023-03-11T09:09:11;98110.41;;;5.08;100.00
63715;BME280;49858;48.956;9.076;2023-03-11T09:11:40;98102.03;;;5.58;100.00
63715;BME280;49858;48.956;9.076;2023-03-11T09:14:08;98106.56;;;4.88;100.00
63715;BME280;49858;48.956;9.076;2023-03-11T09:16:36;98102.22;;;5.74;100.00
63715;BME280;49858;48.956;9.076;2023-03-11T09:19:04;98107.28;;;5.51;100.00
63715;BME280;49858;48.956;9.076;2023-03-11T09:21:33;98100.84;;;5.80;100.00
63715;BME280;49858;48.956;9.076;2023-03-11T09:24:00;98114.31;;;6.10;100.00
63715;BME280;49858;48.956;9.076;2023-03-11T09:26:30;98101.69;;;7.38;100.00
63715;BME280;49858;48.956;9.076;2023-03-11T09:28:59;98109.03;;;7.62;98.07
63715;BME280;49858;48.956;9.076;2023-03-11T09:31:27;98112.47;;;8.07;94.55
63715;BME280;49858;48.956;9.076;2023-03-11T09:33:54;98112.28;;;7.68;95.86
63715;BME280;49858;48.956;9.076;2023-03-11T09:36:22;98114.59;;;8.13;92.99
63715;BME280;49858;48.956;9.076;2023-03-11T09:38:50;98115.84;;;5.08;100.00
63715;BME280;49858;48.956;9.076;2023-03-11T09:41:24;98108.63;;;6.15;100.00
63715;BME280;49858;48.956;9.076;2023-03-11T09:44:01;98115.56;;;5.55;100.00
63715;BME280;49858;48.956;9.076;2023-03-11T09:46:48;98106.97;;;7.59;98.66
63715;BME280;49858;48.956;9.076;2023-03-11T09:49:22;98101.09;;;8.72;93.59
63715;BME280;49858;48.956;9.076;2023-03-11T09:52:00;98113.75;;;9.34;84.36
63715;BME280;49858;48.956;9.076;2023-03-11T09:54:37;98106.56;;;7.73;83.90
63715;BME280;49858;48.956;9.076;2023-03-11T09:57:08;98102.19;;;9.06;76.83
63715;BME280;49858;48.956;9.076;2023-03-11T09:59:40;98106.09;;;9.24;75.88
63715;BME280;49858;48.956;9.076;2023-03-11T10:02:14;98099.53;;;9.29;74.06
63715;BME280;49858;48.956;9.076;2023-03-11T10:04:49;98097.72;;;9.17;71.20
63715;BME280;49858;48.956;9.076;2023-03-11T10:07:22;98103.34;;;8.85;74.13
63715;BME280;49858;48.956;9.076;2023-03-11T10:09:54;98095.84;;;8.31;71.41
63715;BME280;49858;48.956;9.076;2023-03-11T10:12:35;98103.03;;;8.71;72.18
63715;BME280;49858;48.956;9.076;2023-03-11T10:15:18;98109.28;;;8.52;72.42
63715;BME280;49858;48.956;9.076;2023-03-11T10:18:01;98101.03;;;9.07;68.82
63715;BME280;49858;48.956;9.076;2023-03-11T10:20:38;98099.41;;;8.00;78.13
63715;BME280;49858;48.956;9.076;2023-03-11T10:23:18;98103.31;;;8.66;72.93
63715;BME280;49858;48.956;9.076;2023-03-11T10:25:55;98111.72;;;5.68;89.79
63715;BME280;49858;48.956;9.076;2023-03-11T10:28:29;98098.16;;;6.29;88.73
63715;BME280;49858;48.956;9.076;2023-03-11T10:31:05;98096.94;;;6.79;80.61
63715;BME280;49858;48.956;9.076;2023-03-11T10:33:37;98108.97;;;4.48;90.89
63715;BME280;49858;48.956;9.076;2023-03-11T10:36:11;98101.00;;;6.21;87.13
63715;BME280;49858;48.956;9.076;2023-03-11T10:38:43;98100.31;;;6.88;81.43
63715;BME280;49858;48.956;9.076;2023-03-11T10:41:14;98105.03;;;7.60;76.38
63715;BME280;49858;48.956;9.076;2023-03-11T10:43:49;98105.75;;;8.20;75.33
63715;BME280;49858;48.956;9.076;2023-03-11T10:46:23;98109.31;;;6.36;80.49
63715;BME280;49858;48.956;9.076;2023-03-11T10:48:51;98098.97;;;7.10;77.19
63715;BME280;49858;48.956;9.076;2023-03-11T10:51:20;98096.91;;;7.79;76.64
63715;BME280;49858;48.956;9.076;2023-03-11T10:53:50;98099.41;;;7.25;80.16
63715;BME280;49858;48.956;9.076;2023-03-11T10:56:26;98106.09;;;5.07;82.26
63715;BME280;49858;48.956;9.076;2023-03-11T10:58:54;98107.78;;;4.57;91.65
63715;BME280;49858;48.956;9.076;2023-03-11T11:01:25;98108.72;;;5.49;93.68
63715;BME280;49858;48.956;9.076;2023-03-11T11:03:55;98108.22;;;5.22;86.44
63715;BME280;49858;48.956;9.076;2023-03-11T11:06:26;98114.31;;;5.19;81.60
63715;BME280;49858;48.956;9.076;2023-03-11T11:09:05;98114.66;;;6.08;74.25
63715;BME280;49858;48.956;9.076;2023-03-11T11:11:33;98117.84;;;8.51;63.82
63715;BME280;49858;48.956;9.076;2023-03-11T11:14:01;98123.38;;;5.89;68.43
63715;BME280;49858;48.956;9.076;2023-03-11T11:16:31;98122.81;;;5.96;76.07
63715;BME280;49858;48.956;9.076;2023-03-11T11:19:02;98126.91;;;4.91;83.78
63715;BME280;49858;48.956;9.076;2023-03-11T11:21:32;98120.56;;;4.06;86.57
63715;BME280;49858;48.956;9.076;2023-03-11T11:24:09;98127.22;;;4.18;81.76
63715;BME280;49858;48.956;9.076;2023-03-11T11:26:40;98114.16;;;4.82;78.28
63715;BME280;49858;48.956;9.076;2023-03-11T11:29:13;98112.88;;;4.00;75.17
63715;BME280;49858;48.956;9.076;2023-03-11T11:31:44;98115.00;;;4.74;74.83
63715;BME280;49858;48.956;9.076;2023-03-11T11:34:27;98115.75;;;4.63;78.28
63715;BME280;49858;48.956;9.076;2023-03-11T11:36:57;98118.06;;;6.05;70.77
63715;BME280;49858;48.956;9.076;2023-03-11T11:39:27;98111.00;;;7.50;61.44
63715;BME280;49858;48.956;9.076;2023-03-11T11:41:56;98111.09;;;6.69;63.96
63715;BME280;49858;48.956;9.076;2023-03-11T11:44:30;98121.72;;;5.64;69.74
63715;BME280;49858;48.956;9.076;2023-03-11T11:47:01;98116.34;;;6.50;67.91
63715;BME280;49858;48.956;9.076;2023-03-11T11:49:33;98120.69;;;6.51;67.88
63715;BME280;49858;48.956;9.076;2023-03-11T11:52:04;98112.84;;;5.22;80.27
63715;BME280;49858;48.956;9.076;2023-03-11T11:54:36;98111.75;;;4.81;84.30
63715;BME280;49858;48.956;9.076;2023-03-11T11:57:11;98106.66;;;5.46;80.41
63715;BME280;49858;48.956;9.076;2023-03-11T11:59:40;98114.38;;;6.62;75.48
63715;BME280;49858;48.956;9.076;2023-03-11T12:02:29;98096.25;;;6.82;72.98
63715;BME280;49858;48.956;9.076;2023-03-11T12:05:05;98098.16;;;7.22;71.13
63715;BME280;49858;48.956;9.076;2023-03-11T12:07:48;98098.63;;;5.49;73.82
63715;BME280;49858;48.956;9.076;2023-03-11T12:10:23;98087.13;;;5.10;75.01
63715;BME280;49858;48.956;9.076;2023-03-11T12:12:59;98090.66;;;5.11;73.09
63715;BME280;49858;48.956;9.076;2023-03-11T12:15:36;98084.41;;;5.44;68.59
63715;BME280;49858;48.956;9.076;2023-03-11T12:18:10;98082.63;;;6.58;66.20
63715;BME280;49858;48.956;9.076;2023-03-11T12:20:44;98081.50;;;6.59;65.02
63715;BME280;49858;48.956;9.076;2023-03-11T12:23:17;98077.94;;;5.15;69.06
63715;BME280;49858;48.956;9.076;2023-03-11T12:25:59;98064.63;;;6.69;69.22
63715;BME280;49858;48.956;9.076;2023-03-11T12:28:37;98067.41;;;8.71;57.48
63715;BME280;49858;48.956;9.076;2023-03-11T12:31:08;98077.38;;;9.60;56.66
63715;BME280;49858;48.956;9.076;2023-03-11T12:33:40;98076.34;;;6.70;53.32
63715;BME280;49858;48.956;9.076;2023-03-11T12:36:21;98076.41;;;6.45;60.31
63715;BME280;49858;48.956;9.076;2023-03-11T12:38:50;98075.50;;;8.32;52.68
63715;BME280;49858;48.956;9.076;2023-03-11T12:41:28;98079.28;;;7.05;57.64
63715;BME280;49858;48.956;9.076;2023-03-11T12:44:01;98082.03;;;7.05;58.59
63715;BME280;49858;48.956;9.076;2023-03-11T12:46:58;98070.59;;;7.15;56.40
63715;BME280;49858;48.956;9.076;2023-03-11T12:49:29;98066.66;;;9.32;56.64
63715;BME280;49858;48.956;9.076;2023-03-11T12:52:03;98062.44;;;10.87;50.23
63715;BME280;49858;48.956;9.076;2023-03-11T12:54:32;98069.19;;;12.49;46.67
63715;BME280;49858;48.956;9.076;2023-03-11T12:57:02;98060.75;;;12.90;44.76
63715;BME280;49858;48.956;9.076;2023-03-11T13:00:02;98061.34;;;12.58;40.17
63715;BME280;49858;48.956;9.076;2023-03-11T13:03:13;98061.38;;;11.25;43.51
63715;BME280;49858;48.956;9.076;2023-03-11T13:05:54;98063.94;;;10.51;46.36
63715;BME280;49858;48.956;9.076;2023-03-11T13:08:24;98053.75;;;11.15;44.17
63715;BME280;49858;48.956;9.076;2023-03-11T13:10:54;98053.59;;;11.75;43.17
63715;BME280;49858;48.956;9.076;2023-03-11T13:13:36;98045.09;;;12.42;40.60
63715;BME280;49858;48.956;9.076;2023-03-11T13:16:36;98054.56;;;11.93;41.62
63715;BME280;49858;48.956;9.076;2023-03-11T13:19:32;98046.78;;;12.02;41.49
63715;BME280;49858;48.956;9.076;2023-03-11T13:22:01;98065.53;;;8.40;48.68